createdAt,value
2022-10-28T00:00:50.318Z,11.05
2022-10-28T00:03:17.449Z,13.65
2022-10-28T00:05:45.444Z,13.42
2022-10-28T00:08:11.992Z,14.03
2022-10-28T00:10:38.405Z,14.10
2022-10-28T00:13:04.910Z,13.66
2022-10-28T00:15:34.299Z,14.07
2022-10-28T00:18:00.760Z,14.11
2022-10-28T00:20:27.294Z,14.13
2022-10-28T00:22:53.745Z,13.47
2022-10-28T00:25:24.573Z,13.94
2022-10-28T00:27:52.790Z,14.10
2022-10-28T00:30:19.734Z,13.33
2022-10-28T00:32:46.207Z,13.97
2022-10-28T00:35:12.688Z,13.61
2022-10-28T00:37:39.114Z,13.60
2022-10-28T00:40:05.856Z,13.91
2022-10-28T00:42:32.259Z,14.06
2022-10-28T00:45:00.953Z,14.06
2022-10-28T00:47:44.135Z,14.15
2022-10-28T00:50:26.005Z,13.82
2022-10-28T00:52:58.732Z,11.77
2022-10-28T00:55:26.043Z,10.04
2022-10-28T00:57:56.661Z,13.28
2022-10-28T01:00:24.950Z,13.75
2022-10-28T01:02:51.842Z,13.51
2022-10-28T01:05:26.103Z,12.63
2022-10-28T01:07:57.396Z,13.37
2022-10-28T01:10:50.749Z,13.72
2022-10-28T01:13:51.307Z,12.84
2022-10-28T01:16:29.701Z,13.43
2022-10-28T01:19:05.048Z,13.76
2022-10-28T01:21:49.881Z,13.81
2022-10-28T01:24:35.093Z,13.82
2022-10-28T01:27:30.712Z,13.89
2022-10-28T01:30:07.672Z,13.84
2022-10-28T01:32:59.529Z,13.85
2022-10-28T01:35:34.987Z,13.83
2022-10-28T01:38:40.501Z,13.82
2022-10-28T01:41:09.869Z,12.32
2022-10-28T01:44:00.045Z,13.56
2022-10-28T01:46:37.674Z,13.73
2022-10-28T01:49:31.062Z,12.48
2022-10-28T01:52:03.288Z,13.44
2022-10-28T01:54:32.576Z,11.84
2022-10-28T01:57:02.187Z,13.44
2022-10-28T01:59:30.682Z,13.22
2022-10-28T02:01:57.870Z,10.98
2022-10-28T02:04:24.449Z,12.97
2022-10-28T02:06:54.736Z,13.49
2022-10-28T02:09:47.645Z,13.54
2022-10-28T02:12:37.187Z,13.54
2022-10-28T02:15:09.621Z,13.58
2022-10-28T02:17:49.024Z,12.98
2022-10-28T02:20:37.802Z,13.48
2022-10-28T02:23:37.213Z,13.57
2022-10-28T02:26:10.246Z,11.83
2022-10-28T02:28:42.941Z,13.23
2022-10-28T02:31:24.915Z,11.56
2022-10-28T02:33:57.236Z,12.18
2022-10-28T02:36:26.859Z,13.12
2022-10-28T02:38:54.892Z,13.35
2022-10-28T02:41:52.907Z,13.44
2022-10-28T02:44:27.919Z,13.42
2022-10-28T02:46:57.825Z,11.89
2022-10-28T02:49:26.618Z,12.60
2022-10-28T02:51:57.533Z,13.24
2022-10-28T02:54:29.309Z,13.37
2022-10-28T02:57:01.374Z,13.40
2022-10-28T02:59:29.144Z,13.39
2022-10-28T03:01:56.364Z,9.64
2022-10-28T03:04:23.337Z,12.23
2022-10-28T03:06:49.774Z,13.08
2022-10-28T03:09:16.221Z,13.07
2022-10-28T03:11:42.672Z,12.49
2022-10-28T03:14:11.867Z,13.08
2022-10-28T03:16:41.037Z,13.22
2022-10-28T03:21:38.783Z,13.32
2022-10-28T03:24:05.428Z,13.32
2022-10-28T03:26:31.832Z,13.34
2022-10-28T03:28:58.290Z,13.36
2022-10-28T03:31:24.664Z,11.39
2022-10-28T03:33:51.071Z,12.88
2022-10-28T03:36:17.519Z,13.12
2022-10-28T03:38:43.932Z,12.57
2022-10-28T03:41:10.362Z,11.97
2022-10-28T03:43:36.776Z,11.42
2022-10-28T03:46:03.177Z,12.77
2022-10-28T03:48:29.630Z,12.31
2022-10-28T03:50:56.176Z,12.96
2022-10-28T03:53:26.256Z,10.83
2022-10-28T03:55:55.652Z,12.59
2022-10-28T03:58:23.141Z,12.98
2022-10-28T04:00:50.370Z,12.88
2022-10-28T04:03:18.072Z,13.04
2022-10-28T04:05:44.806Z,11.19
2022-10-28T04:08:11.305Z,12.31
2022-10-28T04:10:37.786Z,12.85
2022-10-28T04:13:05.829Z,13.01
2022-10-28T04:15:33.059Z,13.06
2022-10-28T04:17:59.772Z,11.32
2022-10-28T04:20:27.111Z,12.69
2022-10-28T04:22:57.076Z,12.92
2022-10-28T04:25:25.169Z,13.00
2022-10-28T04:27:51.972Z,12.59
2022-10-28T04:30:19.226Z,11.54
2022-10-28T04:32:45.729Z,10.64
2022-10-28T04:35:13.130Z,12.56
2022-10-28T04:37:40.885Z,12.18
2022-10-28T04:40:08.437Z,11.25
2022-10-28T04:42:35.261Z,12.50
2022-10-28T04:45:01.674Z,12.75
2022-10-28T04:47:28.175Z,12.81
2022-10-28T04:49:54.631Z,12.85
2022-10-28T04:52:21.104Z,12.90
2022-10-28T04:54:47.551Z,12.41
2022-10-28T04:57:13.978Z,10.25
2022-10-28T04:59:40.627Z,8.28
2022-10-28T05:02:07.224Z,10.97
2022-10-28T05:04:33.709Z,12.29
2022-10-28T05:07:00.176Z,12.56
2022-10-28T05:09:26.647Z,11.97
2022-10-28T05:11:54.262Z,12.19
2022-10-28T05:14:20.772Z,12.60
2022-10-28T05:16:47.183Z,12.69
2022-10-28T05:19:13.571Z,12.01
2022-10-28T05:21:39.936Z,12.55
2022-10-28T05:24:06.786Z,10.03
2022-10-28T05:26:33.227Z,11.66
2022-10-28T05:28:59.895Z,11.77
2022-10-28T05:34:15.983Z,11.57
2022-10-28T05:36:42.372Z,12.33
2022-10-28T05:39:08.846Z,10.59
2022-10-28T05:41:38.620Z,12.14
2022-10-28T05:44:06.001Z,11.95
2022-10-28T05:46:32.399Z,12.41
2022-10-28T05:48:58.833Z,12.40
2022-10-28T05:51:25.199Z,12.49
2022-10-28T05:53:51.651Z,11.60
2022-10-28T05:56:18.447Z,9.96
2022-10-28T05:58:45.018Z,8.97
2022-10-28T06:01:11.623Z,11.51
2022-10-28T06:03:38.145Z,12.20
2022-10-28T06:06:04.744Z,11.67
2022-10-28T06:08:31.177Z,12.33
2022-10-28T06:10:56.117Z,9.67
2022-10-28T06:13:23.009Z,11.77
2022-10-28T06:15:53.709Z,9.62
2022-10-28T06:18:21.323Z,10.39
2022-10-28T06:20:52.564Z,10.87
2022-10-28T06:23:19.130Z,11.70
2022-10-28T06:25:45.577Z,11.81
2022-10-28T06:28:12.101Z,11.47
2022-10-28T06:30:38.569Z,12.08
2022-10-28T06:33:04.987Z,12.18
2022-10-28T06:35:31.483Z,9.08
2022-10-28T06:37:57.917Z,11.22
2022-10-28T06:40:25.223Z,8.88
2022-10-28T06:43:02.792Z,10.24
2022-10-28T06:45:31.185Z,11.16
2022-10-28T06:48:05.649Z,10.37
2022-10-28T06:50:33.774Z,11.61
2022-10-28T06:53:00.267Z,11.93
2022-10-28T06:55:27.214Z,11.60
2022-10-28T06:57:54.783Z,10.44
2022-10-28T07:00:21.491Z,11.01
2022-10-28T07:02:52.365Z,10.76
2022-10-28T07:05:19.016Z,11.19
2022-10-28T07:07:45.436Z,11.09
2022-10-28T07:10:11.903Z,11.51
2022-10-28T07:12:38.339Z,11.93
2022-10-28T07:15:05.337Z,12.32
2022-10-28T07:17:31.771Z,12.81
2022-10-28T07:19:58.191Z,12.56
2022-10-28T07:22:25.743Z,13.07
2022-10-28T07:24:52.370Z,12.84
2022-10-28T07:27:18.745Z,14.17
2022-10-28T07:29:45.234Z,14.01
2022-10-28T07:32:11.613Z,14.26
2022-10-28T07:34:38.018Z,12.82
2022-10-28T07:37:05.979Z,12.83
2022-10-28T07:39:32.656Z,13.80
2022-10-28T07:42:01.123Z,12.65
2022-10-28T07:44:27.577Z,12.75
2022-10-28T07:46:57.165Z,13.67
2022-10-28T07:49:24.887Z,13.88
2022-10-28T07:51:51.631Z,16.32
2022-10-28T07:54:18.054Z,16.57
2022-10-28T07:56:44.506Z,17.80
2022-10-28T07:59:10.930Z,17.80
2022-10-28T08:01:37.600Z,18.75
2022-10-28T08:04:04.144Z,19.16
2022-10-28T08:06:30.612Z,19.43
2022-10-28T08:08:57.594Z,20.11
2022-10-28T08:11:24.446Z,19.53
2022-10-28T08:13:52.431Z,20.01
2022-10-28T08:16:19.341Z,18.56
2022-10-28T08:18:45.958Z,15.10
2022-10-28T08:21:14.088Z,14.71
2022-10-28T08:23:41.540Z,17.46
2022-10-28T08:26:08.111Z,18.79
2022-10-28T08:28:34.546Z,16.62
2022-10-28T08:31:09.752Z,19.48
2022-10-28T08:33:38.155Z,22.91
2022-10-28T08:36:05.831Z,23.76
2022-10-28T08:38:32.407Z,22.25
2022-10-28T08:41:15.533Z,19.79
2022-10-28T08:44:14.369Z,23.13
2022-10-28T08:47:02.547Z,22.71
2022-10-28T08:49:32.392Z,23.88
2022-10-28T08:52:30.733Z,24.73
2022-10-28T08:55:12.602Z,25.36
2022-10-28T08:57:51.899Z,25.73
2022-10-28T09:00:25.649Z,25.91
2022-10-28T09:03:12.259Z,26.10
2022-10-28T09:05:44.823Z,24.62
2022-10-28T09:08:23.515Z,26.74
2022-10-28T09:10:56.042Z,25.88
2022-10-28T09:13:52.104Z,22.38
2022-10-28T09:16:51.791Z,25.15
2022-10-28T09:19:35.734Z,26.84
2022-10-28T09:22:20.793Z,27.14
2022-10-28T09:25:01.005Z,27.18
2022-10-28T09:27:38.184Z,26.95
2022-10-28T09:30:07.481Z,26.53
2022-10-28T09:32:52.867Z,26.69
2022-10-28T09:35:23.245Z,26.42
2022-10-28T09:37:56.145Z,26.06
2022-10-28T09:40:27.239Z,25.66
2022-10-28T09:43:05.711Z,24.07
2022-10-28T09:45:36.005Z,22.32
2022-10-28T09:48:16.872Z,24.60
2022-10-28T09:50:44.701Z,27.64
2022-10-28T09:53:36.246Z,27.91
2022-10-28T09:56:04.675Z,28.21
2022-10-28T09:58:33.340Z,26.92
2022-10-28T10:01:00.624Z,28.50
2022-10-28T10:03:27.069Z,28.73
2022-10-28T10:05:56.851Z,29.25
2022-10-28T10:08:23.871Z,29.18
2022-10-28T10:10:55.941Z,29.57
2022-10-28T10:13:27.395Z,30.04
2022-10-28T10:16:18.675Z,29.93
2022-10-28T10:18:49.729Z,29.28
2022-10-28T10:21:16.612Z,29.94
2022-10-28T10:23:43.051Z,28.34
2022-10-28T10:26:13.684Z,28.94
2022-10-28T10:28:45.517Z,29.52
2022-10-28T10:31:21.281Z,29.67
2022-10-28T10:33:53.486Z,29.37
2022-10-28T10:36:23.730Z,28.49
2022-10-28T10:38:55.706Z,28.76
2022-10-28T10:41:44.795Z,27.66
2022-10-28T10:44:24.875Z,25.95
2022-10-28T10:47:05.080Z,24.83
2022-10-28T10:49:34.019Z,26.42
2022-10-28T10:52:03.286Z,25.86
2022-10-28T10:54:31.611Z,25.54
2022-10-28T10:57:17.163Z,26.33
2022-10-28T10:59:49.491Z,26.88
2022-10-28T11:02:34.683Z,26.51
2022-10-28T11:05:04.737Z,26.26
2022-10-28T11:07:32.824Z,27.84
2022-10-28T11:09:59.626Z,28.81
2022-10-28T11:12:32.083Z,27.86
2022-10-28T11:15:20.034Z,27.32
2022-10-28T11:18:00.933Z,27.71
2022-10-28T11:20:37.818Z,27.61
2022-10-28T11:23:21.700Z,27.54
2022-10-28T11:25:52.689Z,27.14
2022-10-28T11:28:37.589Z,26.43
2022-10-28T11:31:28.063Z,25.78
2022-10-28T11:34:16.154Z,25.50
2022-10-28T11:37:09.144Z,25.29
2022-10-28T11:40:03.632Z,25.25
2022-10-28T11:43:03.246Z,25.08
2022-10-28T11:45:51.262Z,24.98
2022-10-28T11:48:41.244Z,24.85
2022-10-28T11:51:30.937Z,24.61
2022-10-28T11:54:43.038Z,24.64
2022-10-28T11:57:14.922Z,24.28
2022-10-28T11:59:56.231Z,24.65
2022-10-28T12:02:47.056Z,23.99
2022-10-28T12:05:40.818Z,24.33
2022-10-28T12:08:07.199Z,24.55
2022-10-28T12:11:11.947Z,24.56
2022-10-28T12:13:50.417Z,23.67
2022-10-28T12:16:33.008Z,23.97
2022-10-28T12:19:05.564Z,24.16
2022-10-28T12:21:43.082Z,24.38
2022-10-28T12:24:15.203Z,24.39
2022-10-28T12:26:47.598Z,23.71
2022-10-28T12:29:23.015Z,22.11
2022-10-28T12:31:55.818Z,22.07
2022-10-28T12:34:28.321Z,21.01
2022-10-28T12:37:02.699Z,21.75
2022-10-28T12:39:35.171Z,23.17
2022-10-28T12:42:22.581Z,23.93
2022-10-28T12:44:53.782Z,23.92
2022-10-28T12:47:43.311Z,23.66
2022-10-28T12:50:52.126Z,23.31
2022-10-28T12:53:36.584Z,20.67
2022-10-28T12:56:14.845Z,21.17
2022-10-28T12:59:12.014Z,20.56
2022-10-28T13:01:39.565Z,22.30
2022-10-28T13:04:06.314Z,22.50
2022-10-28T13:07:07.045Z,22.41
2022-10-28T13:09:58.224Z,22.49
2022-10-28T13:12:58.975Z,22.69
2022-10-28T13:15:46.943Z,22.89
2022-10-28T13:18:41.127Z,22.98
2022-10-28T13:21:24.722Z,23.09
2022-10-28T13:24:28.745Z,23.17
2022-10-28T13:26:55.732Z,23.09
2022-10-28T13:29:29.894Z,23.00
2022-10-28T13:31:56.540Z,22.92
2022-10-28T13:34:33.022Z,22.82
2022-10-28T13:37:03.346Z,21.98
2022-10-28T13:39:31.569Z,21.94
2022-10-28T13:42:13.319Z,22.63
2022-10-28T13:44:57.381Z,22.99
2022-10-28T13:47:33.817Z,22.97
2022-10-28T13:50:10.915Z,21.08
2022-10-28T13:52:45.293Z,21.33
2022-10-28T13:55:27.817Z,22.11
2022-10-28T13:58:03.928Z,22.11
2022-10-28T14:00:30.332Z,22.01
2022-10-28T14:03:16.634Z,21.51
2022-10-28T14:05:43.186Z,21.48
2022-10-28T14:08:38.535Z,21.83
2022-10-28T14:11:08.256Z,21.66
2022-10-28T14:13:39.493Z,21.52
2022-10-28T14:16:24.950Z,21.69
2022-10-28T14:19:06.191Z,21.55
2022-10-28T14:22:01.486Z,21.45
2022-10-28T14:24:33.807Z,21.38
2022-10-28T14:27:06.492Z,21.23
2022-10-28T14:29:50.603Z,19.98
2022-10-28T14:32:32.603Z,20.51
2022-10-28T14:35:12.818Z,20.64
2022-10-28T14:37:57.822Z,20.80
2022-10-28T14:40:32.482Z,20.70
2022-10-28T14:43:11.768Z,19.34
2022-10-28T14:45:47.352Z,19.02
2022-10-28T14:48:28.985Z,19.11
2022-10-28T14:50:56.433Z,19.21
2022-10-28T14:53:30.473Z,19.67
2022-10-28T14:56:03.083Z,18.89
2022-10-28T14:58:35.186Z,18.71
2022-10-28T15:01:17.910Z,18.85
2022-10-28T15:03:46.353Z,19.74
2022-10-28T15:06:46.691Z,20.04
2022-10-28T15:09:31.505Z,19.97
2022-10-28T15:12:05.507Z,19.87
2022-10-28T15:14:41.137Z,19.72
2022-10-28T15:17:28.939Z,18.62
2022-10-28T15:19:57.535Z,19.13
2022-10-28T15:22:30.728Z,19.29
2022-10-28T15:25:01.364Z,19.29
2022-10-28T15:27:39.269Z,19.04
2022-10-28T15:30:23.210Z,18.65
2022-10-28T15:32:51.103Z,18.47
2022-10-28T15:35:26.875Z,18.48
2022-10-28T15:37:54.848Z,18.57
2022-10-28T15:40:32.674Z,18.61
2022-10-28T15:43:02.315Z,18.88
2022-10-28T15:45:31.646Z,18.32
2022-10-28T15:47:58.614Z,18.36
2022-10-28T15:50:26.890Z,18.50
2022-10-28T15:53:14.804Z,18.30
2022-10-28T15:56:02.943Z,18.27
2022-10-28T15:58:39.691Z,18.20
2022-10-28T16:01:26.444Z,18.08
2022-10-28T16:03:55.227Z,17.64
2022-10-28T16:06:35.156Z,18.02
2022-10-28T16:09:04.576Z,18.04
2022-10-28T16:11:31.657Z,18.00
2022-10-28T16:14:01.015Z,18.03
2022-10-28T16:16:28.957Z,18.14
2022-10-28T16:19:07.753Z,18.12
2022-10-28T16:21:35.520Z,17.90
2022-10-28T16:24:02.814Z,17.88
2022-10-28T16:26:31.323Z,17.99
2022-10-28T16:28:57.888Z,18.01
2022-10-28T16:31:28.483Z,18.05
2022-10-28T16:33:54.988Z,17.64
2022-10-28T16:36:21.523Z,17.43
2022-10-28T16:38:47.947Z,17.81
2022-10-28T16:41:18.621Z,18.00
2022-10-28T16:43:45.851Z,15.93
2022-10-28T16:46:13.374Z,16.27
2022-10-28T16:48:39.847Z,17.48
2022-10-28T16:51:12.853Z,17.79
2022-10-28T16:53:39.353Z,17.36
2022-10-28T16:56:09.841Z,17.75
2022-10-28T16:58:42.233Z,17.77
2022-10-28T17:01:09.850Z,17.72
2022-10-28T17:03:36.515Z,17.74
2022-10-28T17:06:03.026Z,17.78
2022-10-28T17:08:56.649Z,17.69
2022-10-28T17:11:16.160Z,17.68
2022-10-28T17:13:42.604Z,17.22
2022-10-28T17:16:08.990Z,16.72
2022-10-28T17:18:35.472Z,17.56
2022-10-28T17:21:02.762Z,17.18
2022-10-28T17:23:29.846Z,17.54
2022-10-28T17:25:59.901Z,17.75
2022-10-28T17:28:26.594Z,17.68
2022-10-28T17:30:53.495Z,17.61
2022-10-28T17:33:19.872Z,16.84
2022-10-28T17:35:46.348Z,17.47
2022-10-28T17:38:12.746Z,17.67
2022-10-28T17:40:39.171Z,17.27
2022-10-28T17:43:05.592Z,17.62
2022-10-28T17:45:31.973Z,17.68
2022-10-28T17:47:59.474Z,17.61
2022-10-28T17:50:25.894Z,17.59
2022-10-28T17:52:53.471Z,17.56
2022-10-28T17:55:20.171Z,17.59
2022-10-28T17:57:46.672Z,16.51
2022-10-28T18:00:13.764Z,13.52
2022-10-28T18:02:40.510Z,14.19
2022-10-28T18:05:07.552Z,16.70
2022-10-28T18:07:34.025Z,17.18
2022-10-28T18:10:00.451Z,17.32
2022-10-28T18:12:26.894Z,17.31
2022-10-28T18:14:53.301Z,16.78
2022-10-28T18:17:19.698Z,17.23
2022-10-28T18:19:46.095Z,17.33
2022-10-28T18:22:12.653Z,17.37
2022-10-28T18:24:39.080Z,14.45
2022-10-28T18:27:05.494Z,15.13
2022-10-28T18:29:31.913Z,16.70
2022-10-28T18:32:00.603Z,16.55
2022-10-28T18:34:27.318Z,16.30
2022-10-28T18:36:53.854Z,17.03
2022-10-28T18:39:20.246Z,16.92
2022-10-28T18:41:46.763Z,17.14
2022-10-28T18:44:16.887Z,16.78
2022-10-28T18:46:45.268Z,16.35
2022-10-28T18:49:12.115Z,16.99
2022-10-28T18:51:38.561Z,17.11
2022-10-28T18:54:05.199Z,17.16
2022-10-28T18:56:33.963Z,17.27
2022-10-28T18:59:03.446Z,16.69
2022-10-28T19:01:31.053Z,17.13
2022-10-28T19:04:02.593Z,17.17
2022-10-28T19:06:32.621Z,17.18
2022-10-28T19:09:01.806Z,17.16
2022-10-28T19:11:32.537Z,14.88
2022-10-28T19:14:01.062Z,16.67
2022-10-28T19:16:28.481Z,16.38
2022-10-28T19:18:58.785Z,16.35
2022-10-28T19:21:26.617Z,16.90
2022-10-28T19:23:53.451Z,16.37
2022-10-28T19:26:19.965Z,15.34
2022-10-28T19:28:48.477Z,14.76
2022-10-28T19:31:17.742Z,16.60
2022-10-28T19:33:45.229Z,14.77
2022-10-28T19:36:23.560Z,16.30
2022-10-28T19:38:53.505Z,16.76
2022-10-28T19:41:25.564Z,16.12
2022-10-28T19:44:00.625Z,16.18
2022-10-28T19:46:29.163Z,16.76
2022-10-28T19:49:00.383Z,16.78
2022-10-28T19:51:32.465Z,16.84
2022-10-28T19:54:07.824Z,16.88
2022-10-28T19:56:35.428Z,16.11
2022-10-28T19:59:04.289Z,16.77
2022-10-28T20:01:34.018Z,15.52
2022-10-28T20:04:00.998Z,14.68
2022-10-28T20:06:31.930Z,13.53
2022-10-28T20:08:58.351Z,15.01
2022-10-28T20:11:27.290Z,16.28
2022-10-28T20:14:00.747Z,16.55
2022-10-28T20:16:27.961Z,16.53
2022-10-28T20:18:55.898Z,16.59
2022-10-28T20:21:24.884Z,16.63
2022-10-28T20:23:56.265Z,15.73
2022-10-28T20:26:24.829Z,13.00
2022-10-28T20:28:51.493Z,15.05
2022-10-28T20:31:20.126Z,16.15
2022-10-28T20:33:54.709Z,16.37
2022-10-28T20:36:29.784Z,16.44
2022-10-28T20:39:20.849Z,14.78
2022-10-28T20:41:48.646Z,16.18
2022-10-28T20:44:16.087Z,16.32
2022-10-28T20:46:44.900Z,16.37
2022-10-28T20:49:13.099Z,16.46
2022-10-28T20:51:39.806Z,16.44
2022-10-28T20:54:06.287Z,15.37
2022-10-28T20:56:36.272Z,15.96
2022-10-28T20:59:03.745Z,16.33
2022-10-28T21:01:35.845Z,15.34
2022-10-28T21:04:06.063Z,16.01
2022-10-28T21:06:33.355Z,15.39
2022-10-28T21:09:00.308Z,15.88
2022-10-28T21:11:28.243Z,13.84
2022-10-28T21:13:57.745Z,14.37
2022-10-28T21:16:25.234Z,13.48
2022-10-28T21:18:51.883Z,15.29
2022-10-28T21:21:20.105Z,16.03
2022-10-28T21:23:46.577Z,16.20
2022-10-28T21:26:13.592Z,16.29
2022-10-28T21:28:43.726Z,14.98
2022-10-28T21:31:15.139Z,14.22
2022-10-28T21:33:42.869Z,15.80
2022-10-28T21:36:12.102Z,13.02
2022-10-28T21:38:38.680Z,15.35
2022-10-28T21:41:06.255Z,15.97
2022-10-28T21:43:35.606Z,16.08
2022-10-28T21:46:02.877Z,16.05
2022-10-28T21:48:30.618Z,16.10
2022-10-28T21:50:59.619Z,15.90
2022-10-28T21:53:27.070Z,15.95
2022-10-28T21:55:55.455Z,16.07
2022-10-28T21:58:22.136Z,15.11
2022-10-28T22:00:48.556Z,15.93
2022-10-28T22:03:15.187Z,16.06
2022-10-28T22:05:49.462Z,13.30
2022-10-28T22:08:17.174Z,15.09
2022-10-28T22:10:43.851Z,13.77
2022-10-28T22:13:10.261Z,15.40
2022-10-28T22:15:36.751Z,13.05
2022-10-28T22:18:03.223Z,14.26
2022-10-28T22:20:30.100Z,15.60
2022-10-28T22:22:56.954Z,15.78
2022-10-28T22:25:23.582Z,15.88
2022-10-28T22:27:50.014Z,15.79
2022-10-28T22:30:16.541Z,15.94
2022-10-28T22:32:42.963Z,15.95
2022-10-28T22:35:09.477Z,15.92
2022-10-28T22:37:35.881Z,15.91
2022-10-28T22:40:02.355Z,15.94
2022-10-28T22:42:28.757Z,15.91
2022-10-28T22:44:55.207Z,15.87
2022-10-28T22:47:21.655Z,15.95
2022-10-28T22:49:48.102Z,15.82
2022-10-28T22:52:14.580Z,15.84
2022-10-28T22:54:40.964Z,15.82
2022-10-28T22:57:07.389Z,12.87
2022-10-28T22:59:33.806Z,14.55
2022-10-28T23:02:00.318Z,15.47
2022-10-28T23:04:26.774Z,13.78
2022-10-28T23:06:53.194Z,15.28
2022-10-28T23:09:20.529Z,15.26
2022-10-28T23:11:46.933Z,13.81
2022-10-28T23:14:13.439Z,15.31
2022-10-28T23:16:39.854Z,14.57
2022-10-28T23:19:06.254Z,15.45
2022-10-28T23:21:32.754Z,15.60
2022-10-28T23:24:00.613Z,15.64
2022-10-28T23:26:28.884Z,15.65
2022-10-28T23:28:58.542Z,15.21
2022-10-28T23:31:25.278Z,15.62
2022-10-28T23:33:53.839Z,15.60
2022-10-28T23:36:20.607Z,15.63
2022-10-28T23:38:47.182Z,15.42
2022-10-28T23:41:18.115Z,15.63
2022-10-28T23:43:44.938Z,15.62
2022-10-28T23:46:11.756Z,14.25
2022-10-28T23:48:38.642Z,14.78
2022-10-28T23:51:05.428Z,14.50
2022-10-28T23:53:31.881Z,12.58
2022-10-28T23:55:58.348Z,11.87
2022-10-28T23:58:24.869Z,14.73
